Time;durP1;ratioP1;P1;durP2;ratioP2;P2;SDS_P1;SDS_P2;PMS_P1;PMS_P2;Temp;Humidity;BMP_temperature;BMP_pressure;BME280_temperature;BME280_humidity;BME280_pressure;Samples;Min_cycle;Max_cycle;Signal;HPM_P1;HPM_P2
2022/02/12 00:02:25;;;;;;;14.35;11.45;;;;;;;;;;5022428;28;20222;-85
2022/02/12 00:04:51;;;;;;;13.70;10.13;;;;;;;;;;5026484;28;20571;-85
2022/02/12 00:07:17;;;;;;;18.65;9.35;;;;;;;;;;5047861;28;20178;-85
2022/02/12 00:09:43;;;;;;;13.93;10.32;;;;;;;;;;5034153;28;20189;-85
2022/02/12 00:12:09;;;;;;;17.38;10.35;;;;;;;;;;5054896;28;20186;-85
2022/02/12 00:14:35;;;;;;;18.08;11.38;;;;;;;;;;5007372;28;20304;-85
2022/02/12 00:17:01;;;;;;;13.88;10.52;;;;;;;;;;5029948;28;20647;-85
2022/02/12 00:19:27;;;;;;;15.02;10.23;;;;;;;;;;5019027;28;20181;-85
2022/02/12 00:21:52;;;;;;;13.93;10.15;;;;;;;;;;5039063;28;20187;-85
2022/02/12 00:24:18;;;;;;;9.85;8.23;;;;;;;;;;5012621;28;20297;-85
2022/02/12 00:26:44;;;;;;;14.10;10.15;;;;;;;;;;5038100;28;20194;-85
2022/02/12 00:29:10;;;;;;;17.08;10.75;;;;;;;;;;5036180;28;20171;-85
2022/02/12 00:31:36;;;;;;;14.50;9.18;;;;;;;;;;5022525;28;20238;-85
2022/02/12 00:34:02;;;;;;;13.75;9.80;;;;;;;;;;5031469;28;20186;-85
2022/02/12 00:36:28;;;;;;;12.95;8.57;;;;;;;;;;5026922;28;20194;-85
2022/02/12 00:38:54;;;;;;;11.70;8.50;;;;;;;;;;5019303;28;20550;-86
2022/02/12 00:41:20;;;;;;;13.00;8.30;;;;;;;;;;5007659;28;20194;-85
2022/02/12 00:43:46;;;;;;;12.38;8.98;;;;;;;;;;5058628;28;20285;-85
2022/02/12 00:46:12;;;;;;;13.05;9.60;;;;;;;;;;5029287;28;20763;-86
2022/02/12 00:48:38;;;;;;;15.90;9.82;;;;;;;;;;5028040;28;20189;-86
2022/02/12 00:51:04;;;;;;;12.68;9.25;;;;;;;;;;5038112;28;20178;-86
2022/02/12 00:53:30;;;;;;;12.35;8.68;;;;;;;;;;5023388;28;20635;-84
2022/02/12 00:55:57;;;;;;;14.85;8.77;;;;;;;;;;5010807;28;20195;-85
2022/02/12 00:58:23;;;;;;;14.00;9.00;;;;;;;;;;5028308;28;20178;-86
2022/02/12 01:00:49;;;;;;;14.38;9.32;;;;;;;;;;5021091;28;20186;-86
2022/02/12 01:03:15;;;;;;;12.75;9.27;;;;;;;;;;5024448;28;20711;-86
2022/02/12 01:05:41;;;;;;;13.38;8.60;;;;;;;;;;5041694;28;20183;-86
2022/02/12 01:08:08;;;;;;;15.00;8.93;;;;;;;;;;5027665;28;20171;-85
2022/02/12 01:10:34;;;;;;;11.88;9.45;;;;;;;;;;5016167;28;20189;-86
2022/02/12 01:13:01;;;;;;;13.68;10.27;;;;;;;;;;5030682;28;20205;-86
2022/02/12 01:15:27;;;;;;;15.80;10.15;;;;;;;;;;5047935;28;20277;-86
2022/02/12 01:17:53;;;;;;;14.52;9.25;;;;;;;;;;5026304;28;20225;-86
2022/02/12 01:20:20;;;;;;;15.85;9.63;;;;;;;;;;5020804;28;20174;-85
2022/02/12 01:22:49;;;;;;;12.80;8.25;;;;;;;;;;5015512;28;20172;-86
2022/02/12 01:25:15;;;;;;;13.98;8.32;;;;;;;;;;5015263;28;20210;-86
2022/02/12 01:27:41;;;;;;;17.63;9.95;;;;;;;;;;5031066;28;20183;-86
2022/02/12 01:30:08;;;;;;;12.45;8.88;;;;;;;;;;5029534;28;20182;-86
2022/02/12 01:32:34;;;;;;;13.25;8.73;;;;;;;;;;5029950;28;20193;-86
2022/02/12 01:35:00;;;;;;;17.25;9.02;;;;;;;;;;5019439;28;20303;-86
2022/02/12 01:37:26;;;;;;;10.18;7.90;;;;;;;;;;5026296;28;20533;-86
2022/02/12 01:39:53;;;;;;;8.23;7.32;;;;;;;;;;5032392;28;20191;-86
2022/02/12 01:42:19;;;;;;;12.65;8.25;;;;;;;;;;5030613;28;20178;-86
2022/02/12 01:44:45;;;;;;;11.18;8.75;;;;;;;;;;5034457;28;20206;-85
2022/02/12 01:47:12;;;;;;;13.18;8.75;;;;;;;;;;5010962;28;20183;-86
2022/02/12 01:49:38;;;;;;;11.15;8.30;;;;;;;;;;5052497;28;20174;-86
2022/02/12 01:52:07;;;;;;;8.90;8.10;;;;;;;;;;5023906;28;20434;-86
2022/02/12 01:54:33;;;;;;;9.07;7.95;;;;;;;;;;5025444;28;20720;-86
2022/02/12 01:57:03;;;;;;;10.65;7.05;;;;;;;;;;5011369;28;20269;-87
2022/02/12 01:59:30;;;;;;;13.45;7.80;;;;;;;;;;5045979;28;20175;-85
2022/02/12 02:01:56;;;;;;;9.65;6.97;;;;;;;;;;5028431;28;20670;-86
2022/02/12 02:04:23;;;;;;;13.95;8.20;;;;;;;;;;5037827;28;20498;-86
2022/02/12 02:06:49;;;;;;;10.50;7.38;;;;;;;;;;5024345;28;20258;-85
2022/02/12 02:09:19;;;;;;;11.38;7.75;;;;;;;;;;5037112;28;20203;-86
2022/02/12 02:11:46;;;;;;;11.38;7.80;;;;;;;;;;5042373;28;20202;-86
2022/02/12 02:14:12;;;;;;;8.60;7.70;;;;;;;;;;5025605;28;20190;-86
2022/02/12 02:16:40;;;;;;;10.48;8.10;;;;;;;;;;5041448;28;20262;-86
2022/02/12 02:19:06;;;;;;;11.32;9.15;;;;;;;;;;5024913;28;20192;-87
2022/02/12 02:21:34;;;;;;;14.57;9.13;;;;;;;;;;5041866;28;20190;-86
2022/02/12 02:24:00;;;;;;;14.27;8.55;;;;;;;;;;5027798;28;20231;-86
2022/02/12 02:26:26;;;;;;;10.77;8.35;;;;;;;;;;5025442;28;20179;-87
2022/02/12 02:28:52;;;;;;;15.07;8.35;;;;;;;;;;5051926;28;20472;-87
2022/02/12 02:31:18;;;;;;;10.43;8.43;;;;;;;;;;5031529;28;20194;-87
2022/02/12 02:33:45;;;;;;;8.07;7.10;;;;;;;;;;5019959;28;20232;-87
2022/02/12 02:36:12;;;;;;;11.73;7.65;;;;;;;;;;5036654;28;20197;-87
2022/02/12 02:38:38;;;;;;;13.80;8.48;;;;;;;;;;5039102;28;20218;-85
2022/02/12 02:41:05;;;;;;;10.90;8.07;;;;;;;;;;5023295;28;20191;-85
2022/02/12 02:43:31;;;;;;;13.35;7.45;;;;;;;;;;5020159;28;20182;-87
2022/02/12 02:45:57;;;;;;;8.88;7.97;;;;;;;;;;5028016;28;20190;-86
2022/02/12 02:48:23;;;;;;;14.20;8.50;;;;;;;;;;5040499;28;20182;-86
2022/02/12 02:56:19;;;;;;;11.65;6.78;;;;;;;;;;5022942;28;20254;-85
2022/02/12 02:58:46;;;;;;;8.40;6.50;;;;;;;;;;5040646;28;20384;-86
2022/02/12 03:01:12;;;;;;;6.20;5.40;;;;;;;;;;5013278;28;20190;-86
2022/02/12 03:03:39;;;;;;;10.30;6.22;;;;;;;;;;5042645;28;20195;-85
2022/02/12 03:06:05;;;;;;;10.35;7.15;;;;;;;;;;5027321;28;20178;-86
2022/02/12 03:08:31;;;;;;;14.95;7.32;;;;;;;;;;5038281;28;20180;-86
2022/02/12 03:10:57;;;;;;;7.40;6.47;;;;;;;;;;5027040;28;20174;-86
2022/02/12 03:13:24;;;;;;;7.43;6.18;;;;;;;;;;5029582;28;20186;-85
2022/02/12 03:15:50;;;;;;;8.20;6.38;;;;;;;;;;5023805;28;20237;-86
2022/02/12 03:18:16;;;;;;;6.78;5.95;;;;;;;;;;5026337;28;20174;-85
2022/02/12 03:20:42;;;;;;;8.00;5.25;;;;;;;;;;5039203;28;20321;-85
2022/02/12 03:23:08;;;;;;;10.80;6.05;;;;;;;;;;5054541;28;20187;-85
2022/02/12 03:25:35;;;;;;;6.20;5.70;;;;;;;;;;5023737;28;20270;-86
2022/02/12 03:28:02;;;;;;;14.55;6.72;;;;;;;;;;5033241;28;20183;-86
2022/02/12 03:30:30;;;;;;;5.82;5.28;;;;;;;;;;5030755;28;20179;-86
2022/02/12 03:32:56;;;;;;;11.30;6.10;;;;;;;;;;5010272;28;20206;-85
2022/02/12 03:35:28;;;;;;;7.45;5.32;;;;;;;;;;5008195;28;20175;-85
2022/02/12 03:37:55;;;;;;;6.10;5.50;;;;;;;;;;5041345;28;20183;-86
2022/02/12 03:40:21;;;;;;;6.35;5.75;;;;;;;;;;5017194;28;20366;-85
2022/02/12 03:42:47;;;;;;;9.63;5.53;;;;;;;;;;5023151;28;20182;-84
2022/02/12 03:45:14;;;;;;;8.90;5.60;;;;;;;;;;5033919;28;20203;-85
2022/02/12 03:47:40;;;;;;;7.35;5.63;;;;;;;;;;5056067;28;20187;-86
2022/02/12 03:50:06;;;;;;;7.10;5.30;;;;;;;;;;5051831;28;20264;-86
2022/02/12 03:52:32;;;;;;;7.40;5.35;;;;;;;;;;5023498;28;20194;-85
2022/02/12 03:54:58;;;;;;;9.30;5.05;;;;;;;;;;5022963;28;20217;-85
2022/02/12 03:57:24;;;;;;;7.60;5.97;;;;;;;;;;5032954;28;20218;-85
2022/02/12 03:59:50;;;;;;;7.20;5.35;;;;;;;;;;5024226;28;20182;-85
2022/02/12 04:02:16;;;;;;;6.32;5.47;;;;;;;;;;5028131;28;20247;-85
2022/02/12 04:04:42;;;;;;;10.00;5.57;;;;;;;;;;5043101;28;20295;-85
2022/02/12 04:07:08;;;;;;;5.95;5.15;;;;;;;;;;5026375;28;20183;-85
2022/02/12 04:09:34;;;;;;;8.00;5.45;;;;;;;;;;5038715;28;20191;-85
2022/02/12 04:12:00;;;;;;;5.85;4.82;;;;;;;;;;5025026;28;20178;-85
2022/02/12 04:14:26;;;;;;;6.53;5.50;;;;;;;;;;5033857;28;20175;-85
2022/02/12 04:16:52;;;;;;;10.77;5.90;;;;;;;;;;5025345;28;20182;-85
2022/02/12 04:19:18;;;;;;;7.22;5.05;;;;;;;;;;5034330;28;20187;-85
2022/02/12 04:21:44;;;;;;;5.97;4.95;;;;;;;;;;5038270;28;20201;-85
2022/02/12 04:24:10;;;;;;;5.65;4.88;;;;;;;;;;5019297;28;20206;-85
2022/02/12 04:26:36;;;;;;;6.07;5.47;;;;;;;;;;5021830;28;20187;-84
2022/02/12 04:29:02;;;;;;;8.43;5.38;;;;;;;;;;5031207;28;20174;-85
2022/02/12 04:31:28;;;;;;;7.05;6.35;;;;;;;;;;5021032;28;20210;-85
2022/02/12 04:33:54;;;;;;;10.55;6.13;;;;;;;;;;5028603;28;20189;-84
2022/02/12 04:36:20;;;;;;;7.90;5.28;;;;;;;;;;5022175;28;20194;-85
2022/02/12 04:38:46;;;;;;;7.07;5.93;;;;;;;;;;5022401;28;20234;-84
2022/02/12 04:41:12;;;;;;;7.90;5.88;;;;;;;;;;5056361;28;20179;-84
2022/02/12 04:43:39;;;;;;;6.38;5.25;;;;;;;;;;5044469;28;20265;-85
2022/02/12 04:46:05;;;;;;;8.20;5.70;;;;;;;;;;5032621;28;20186;-85
2022/02/12 04:48:31;;;;;;;6.78;5.88;;;;;;;;;;5031405;28;20194;-85
2022/02/12 04:50:57;;;;;;;6.95;6.22;;;;;;;;;;5024712;28;20174;-84
2022/02/12 04:53:23;;;;;;;6.82;5.88;;;;;;;;;;5022673;28;20182;-84
2022/02/12 04:55:49;;;;;;;7.82;5.78;;;;;;;;;;5021505;28;20744;-84
2022/02/12 04:58:15;;;;;;;11.63;6.25;;;;;;;;;;5019237;28;20192;-85
2022/02/12 05:00:41;;;;;;;9.70;5.15;;;;;;;;;;5028352;28;20174;-84
2022/02/12 05:03:07;;;;;;;8.70;5.60;;;;;;;;;;5037673;28;20179;-84
2022/02/12 05:05:34;;;;;;;8.65;5.40;;;;;;;;;;5021399;28;20210;-84
2022/02/12 05:07:59;;;;;;;6.15;5.55;;;;;;;;;;5010011;28;20190;-83
2022/02/12 05:10:25;;;;;;;10.38;5.55;;;;;;;;;;5022189;28;20178;-84
2022/02/12 05:12:52;;;;;;;11.25;6.25;;;;;;;;;;5028834;28;20183;-84
2022/02/12 05:15:18;;;;;;;11.23;5.55;;;;;;;;;;5025965;28;20210;-84
2022/02/12 05:17:44;;;;;;;7.35;4.50;;;;;;;;;;5022300;28;20476;-83
2022/02/12 05:20:10;;;;;;;5.88;4.90;;;;;;;;;;5023741;28;20206;-84
2022/02/12 05:22:36;;;;;;;8.20;5.78;;;;;;;;;;5025877;28;20285;-85
2022/02/12 05:25:02;;;;;;;5.70;4.53;;;;;;;;;;5018051;28;20213;-84
2022/02/12 05:27:30;;;;;;;6.65;4.55;;;;;;;;;;5036061;28;20233;-84
2022/02/12 05:29:56;;;;;;;11.95;5.90;;;;;;;;;;5026812;28;20179;-84
2022/02/12 05:32:22;;;;;;;8.75;6.25;;;;;;;;;;5021317;28;20221;-84
2022/02/12 05:34:48;;;;;;;5.50;4.15;;;;;;;;;;5053966;28;20178;-84
2022/02/12 05:37:14;;;;;;;6.75;5.00;;;;;;;;;;5024765;28;20186;-84
2022/02/12 05:39:40;;;;;;;10.65;5.28;;;;;;;;;;5021270;28;20226;-84
2022/02/12 05:42:06;;;;;;;5.78;4.80;;;;;;;;;;5036986;28;20179;-84
2022/02/12 05:44:32;;;;;;;12.52;5.30;;;;;;;;;;5020416;28;20225;-83
2022/02/12 05:46:58;;;;;;;7.15;4.70;;;;;;;;;;5050516;28;20185;-83
2022/02/12 05:49:24;;;;;;;8.18;5.20;;;;;;;;;;5023421;28;20594;-84
2022/02/12 05:51:50;;;;;;;7.18;4.75;;;;;;;;;;5021176;28;20183;-84
2022/02/12 05:54:16;;;;;;;6.80;4.53;;;;;;;;;;5030040;28;20191;-84
2022/02/12 05:56:42;;;;;;;6.47;4.88;;;;;;;;;;5032725;28;20186;-84
2022/02/12 05:59:12;;;;;;;6.05;4.63;;;;;;;;;;5038278;28;20175;-84
2022/02/12 06:01:38;;;;;;;7.75;4.32;;;;;;;;;;5022545;28;20201;-83
2022/02/12 06:04:05;;;;;;;4.20;3.80;;;;;;;;;;5029193;28;20210;-84
2022/02/12 06:06:30;;;;;;;5.00;4.40;;;;;;;;;;5042789;28;20255;-84
2022/02/12 06:08:56;;;;;;;7.28;4.75;;;;;;;;;;5026379;28;20636;-84
2022/02/12 06:11:22;;;;;;;5.60;3.65;;;;;;;;;;5036884;28;20197;-84
2022/02/12 06:13:51;;;;;;;5.40;4.28;;;;;;;;;;5054121;28;20257;-84
2022/02/12 06:16:18;;;;;;;5.05;3.40;;;;;;;;;;5031420;28;20258;-84
2022/02/12 06:18:44;;;;;;;7.00;4.75;;;;;;;;;;5041797;28;20194;-83
2022/02/12 06:21:10;;;;;;;6.55;5.18;;;;;;;;;;5031929;28;20194;-84
2022/02/12 06:23:37;;;;;;;6.35;4.00;;;;;;;;;;5024634;28;20360;-84
2022/02/12 06:26:04;;;;;;;5.60;3.88;;;;;;;;;;5034310;28;20668;-84
2022/02/12 06:28:30;;;;;;;9.07;4.68;;;;;;;;;;5025268;28;20186;-84
2022/02/12 06:30:56;;;;;;;4.20;3.90;;;;;;;;;;5035603;28;20236;-84
2022/02/12 06:33:22;;;;;;;4.70;4.25;;;;;;;;;;5028927;28;20182;-84
2022/02/12 06:35:48;;;;;;;7.50;4.40;;;;;;;;;;5033706;28;20217;-84
2022/02/12 06:38:14;;;;;;;5.70;3.85;;;;;;;;;;5066854;28;20245;-83
2022/02/12 06:40:40;;;;;;;10.93;5.40;;;;;;;;;;5032265;28;20193;-85
2022/02/12 06:43:06;;;;;;;6.63;4.65;;;;;;;;;;5024525;28;20254;-84
2022/02/12 06:45:34;;;;;;;7.40;3.80;;;;;;;;;;5022229;28;20211;-84
2022/02/12 06:48:00;;;;;;;4.95;4.22;;;;;;;;;;5051641;28;20698;-84
2022/02/12 06:50:26;;;;;;;5.53;4.03;;;;;;;;;;5027194;28;20179;-83
2022/02/12 06:52:52;;;;;;;4.95;3.97;;;;;;;;;;5041357;28;20178;-84
2022/02/12 06:55:18;;;;;;;5.50;3.55;;;;;;;;;;5023524;28;20193;-84
2022/02/12 06:57:44;;;;;;;6.75;4.65;;;;;;;;;;5027402;28;20182;-85
2022/02/12 07:00:11;;;;;;;4.90;3.85;;;;;;;;;;5032049;28;20182;-84
2022/02/12 07:02:38;;;;;;;5.72;4.05;;;;;;;;;;5023280;28;20218;-84
2022/02/12 07:05:04;;;;;;;12.45;4.50;;;;;;;;;;5041014;28;20198;-84
2022/02/12 07:07:30;;;;;;;4.00;3.60;;;;;;;;;;5025302;28;20265;-85
2022/02/12 07:09:56;;;;;;;5.80;4.15;;;;;;;;;;5023458;28;20187;-84
2022/02/12 07:12:22;;;;;;;4.15;3.20;;;;;;;;;;5040651;28;20181;-83
2022/02/12 07:14:48;;;;;;;4.60;3.75;;;;;;;;;;5052147;28;20186;-85
2022/02/12 07:17:14;;;;;;;4.57;4.18;;;;;;;;;;5045243;28;20180;-83
2022/02/12 07:19:41;;;;;;;10.02;4.53;;;;;;;;;;5023799;28;20171;-84
2022/02/12 07:22:07;;;;;;;5.40;3.70;;;;;;;;;;5034251;28;20188;-85
2022/02/12 07:24:33;;;;;;;4.65;3.80;;;;;;;;;;5031598;28;20242;-83
2022/02/12 07:26:59;;;;;;;5.72;4.25;;;;;;;;;;5024408;28;20175;-85
2022/02/12 07:29:25;;;;;;;14.38;5.63;;;;;;;;;;5024901;28;20217;-86
2022/02/12 07:31:51;;;;;;;5.75;4.43;;;;;;;;;;5057007;28;20292;-85
2022/02/12 07:34:19;;;;;;;5.90;4.70;;;;;;;;;;5033727;28;20275;-85
2022/02/12 07:36:45;;;;;;;7.88;4.85;;;;;;;;;;5029585;28;20468;-86
2022/02/12 07:39:11;;;;;;;7.68;6.25;;;;;;;;;;5032053;28;20798;-86
2022/02/12 07:41:37;;;;;;;10.05;6.00;;;;;;;;;;5023315;28;20194;-84
2022/02/12 07:44:04;;;;;;;9.00;6.50;;;;;;;;;;5041554;28;20226;-85
2022/02/12 07:46:30;;;;;;;15.38;6.85;;;;;;;;;;5026993;28;20191;-84
2022/02/12 07:48:56;;;;;;;11.15;7.35;;;;;;;;;;5020668;28;20183;-82
2022/02/12 07:51:22;;;;;;;8.02;6.47;;;;;;;;;;5026410;28;20333;-86
2022/02/12 07:53:49;;;;;;;7.88;5.57;;;;;;;;;;5021100;28;20187;-85
2022/02/12 07:56:15;;;;;;;9.25;5.95;;;;;;;;;;5035811;28;20187;-85
2022/02/12 07:58:41;;;;;;;9.35;5.95;;;;;;;;;;5052242;28;20265;-84
2022/02/12 08:01:07;;;;;;;8.35;5.43;;;;;;;;;;5015987;28;20210;-85
2022/02/12 08:03:33;;;;;;;8.85;5.72;;;;;;;;;;5033344;28;20190;-84
2022/02/12 08:05:59;;;;;;;14.30;6.85;;;;;;;;;;5031659;28;20179;-84
2022/02/12 08:08:24;;;;;;;11.60;6.88;;;;;;;;;;5038417;28;20191;-83
2022/02/12 08:13:35;;;;;;;12.02;7.50;;;;;;;;;;5016378;28;20189;-84
2022/02/12 08:16:01;;;;;;;9.82;6.43;;;;;;;;;;5033481;28;20186;-84
2022/02/12 08:18:27;;;;;;;8.15;6.00;;;;;;;;;;5022006;28;20182;-84
2022/02/12 08:20:53;;;;;;;12.60;7.78;;;;;;;;;;5037103;28;20324;-85
2022/02/12 08:23:19;;;;;;;14.80;6.82;;;;;;;;;;5044446;28;20670;-83
2022/02/12 08:25:45;;;;;;;8.40;6.68;;;;;;;;;;5050621;28;20213;-83
2022/02/12 08:28:12;;;;;;;13.63;7.30;;;;;;;;;;5051012;28;20169;-83
2022/02/12 08:30:37;;;;;;;12.80;8.43;;;;;;;;;;5022618;28;20186;-84
2022/02/12 08:33:03;;;;;;;9.48;8.10;;;;;;;;;;5055073;28;20254;-84
2022/02/12 08:35:29;;;;;;;15.32;8.70;;;;;;;;;;5032400;28;20246;-84
2022/02/12 08:37:56;;;;;;;10.65;7.95;;;;;;;;;;5047524;28;20483;-84
2022/02/12 08:40:22;;;;;;;10.32;7.45;;;;;;;;;;5024838;28;20197;-84
2022/02/12 08:42:49;;;;;;;9.93;7.82;;;;;;;;;;5025942;28;20270;-84
2022/02/12 08:45:15;;;;;;;12.73;7.90;;;;;;;;;;5018203;28;20297;-85
2022/02/12 08:47:41;;;;;;;11.10;7.50;;;;;;;;;;5024865;28;20218;-85
2022/02/12 08:50:08;;;;;;;9.90;8.15;;;;;;;;;;5023488;28;20265;-86
2022/02/12 08:52:35;;;;;;;9.32;6.95;;;;;;;;;;5021496;28;20577;-86
2022/02/12 08:55:01;;;;;;;12.40;8.30;;;;;;;;;;5034336;28;20192;-86
2022/02/12 08:57:27;;;;;;;10.80;7.93;;;;;;;;;;5021875;28;20190;-86
2022/02/12 08:59:53;;;;;;;13.60;8.50;;;;;;;;;;5021774;28;20187;-86
2022/02/12 09:02:19;;;;;;;18.45;9.60;;;;;;;;;;5053933;28;20278;-86
2022/02/12 09:04:45;;;;;;;12.82;9.18;;;;;;;;;;5014845;28;20209;-86
2022/02/12 09:07:11;;;;;;;14.27;8.30;;;;;;;;;;5038683;28;20244;-85
2022/02/12 09:09:39;;;;;;;13.65;9.45;;;;;;;;;;5020269;28;20187;-85
2022/02/12 09:12:05;;;;;;;15.93;9.00;;;;;;;;;;5031325;28;20206;-87
2022/02/12 09:14:31;;;;;;;17.15;11.05;;;;;;;;;;5048122;28;20178;-85
2022/02/12 09:16:57;;;;;;;13.93;7.97;;;;;;;;;;5037229;28;20221;-86
2022/02/12 09:19:23;;;;;;;10.13;4.22;;;;;;;;;;5020283;28;20213;-86
2022/02/12 09:21:49;;;;;;;12.57;4.70;;;;;;;;;;5021353;28;20213;-88
2022/02/12 09:24:15;;;;;;;14.88;5.28;;;;;;;;;;5029665;28;20265;-88
2022/02/12 09:26:41;;;;;;;6.90;5.20;;;;;;;;;;5040592;28;20201;-89
2022/02/12 09:29:07;;;;;;;7.95;4.43;;;;;;;;;;5056286;28;20219;-87
2022/02/12 09:31:33;;;;;;;7.40;3.75;;;;;;;;;;5016014;28;20194;-87
2022/02/12 09:34:00;;;;;;;8.38;3.58;;;;;;;;;;5027585;28;20400;-87
2022/02/12 09:36:26;;;;;;;3.67;2.80;;;;;;;;;;5034519;28;20190;-87
2022/02/12 09:38:52;;;;;;;5.03;3.20;;;;;;;;;;5020804;28;20226;-84
2022/02/12 09:41:23;;;;;;;7.57;2.95;;;;;;;;;;5023496;28;20179;-85
2022/02/12 09:43:50;;;;;;;9.38;3.53;;;;;;;;;;5028455;28;20202;-88
2022/02/12 09:46:22;;;;;;;5.30;3.40;;;;;;;;;;5027570;28;20218;-87
2022/02/12 09:48:48;;;;;;;3.60;2.75;;;;;;;;;;5032895;28;20175;-83
2022/02/12 09:51:14;;;;;;;4.47;3.35;;;;;;;;;;5010974;28;20188;-85
2022/02/12 09:53:40;;;;;;;6.32;3.10;;;;;;;;;;5057689;28;20192;-85
2022/02/12 09:56:06;;;;;;;3.92;3.08;;;;;;;;;;5045238;28;20185;-83
2022/02/12 09:58:32;;;;;;;5.75;2.33;;;;;;;;;;5021532;28;20190;-85
2022/02/12 10:00:59;;;;;;;8.15;4.18;;;;;;;;;;5024518;28;20183;-84
2022/02/12 10:03:25;;;;;;;6.07;3.15;;;;;;;;;;5024234;28;20166;-84
2022/02/12 10:05:53;;;;;;;4.30;2.83;;;;;;;;;;5010669;28;20199;-85
2022/02/12 10:08:19;;;;;;;9.05;5.45;;;;;;;;;;5010530;28;20226;-83
2022/02/12 10:10:46;;;;;;;5.68;3.47;;;;;;;;;;5045205;28;20310;-83
2022/02/12 10:13:27;;;;;;;9.30;4.05;;;;;;;;;;5028778;28;20183;-82
2022/02/12 10:15:57;;;;;;;3.58;3.05;;;;;;;;;;5011158;28;20210;-82
2022/02/12 10:18:24;;;;;;;4.65;2.72;;;;;;;;;;5014135;28;20195;-82
2022/02/12 10:20:51;;;;;;;3.42;2.83;;;;;;;;;;5025276;28;20208;-85
2022/02/12 10:23:18;;;;;;;3.92;2.95;;;;;;;;;;5038053;28;20603;-82
2022/02/12 10:25:45;;;;;;;5.13;3.30;;;;;;;;;;5013893;28;20230;-80
2022/02/12 10:28:13;;;;;;;3.25;2.95;;;;;;;;;;5013606;28;20266;-83
2022/02/12 10:30:39;;;;;;;3.63;3.15;;;;;;;;;;5029464;28;20290;-82
2022/02/12 10:33:06;;;;;;;5.20;2.90;;;;;;;;;;5027725;28;20182;-83
2022/02/12 10:35:33;;;;;;;7.07;3.28;;;;;;;;;;5023537;28;20190;-86
2022/02/12 10:38:07;;;;;;;3.83;3.17;;;;;;;;;;5029593;28;20262;-86
2022/02/12 10:40:34;;;;;;;4.40;2.72;;;;;;;;;;5021250;28;20214;-85
2022/02/12 10:43:00;;;;;;;3.08;2.50;;;;;;;;;;5046610;28;20183;-81
2022/02/12 10:45:28;;;;;;;6.10;3.50;;;;;;;;;;5023301;28;20631;-84
2022/02/12 10:47:55;;;;;;;4.95;3.10;;;;;;;;;;5023954;28;20194;-83
2022/02/12 10:50:23;;;;;;;6.35;3.17;;;;;;;;;;5045212;28;20182;-84
2022/02/12 10:52:55;;;;;;;6.50;3.40;;;;;;;;;;5033064;28;20179;-83
2022/02/12 10:55:31;;;;;;;5.13;3.30;;;;;;;;;;5029175;28;20689;-84
2022/02/12 10:58:02;;;;;;;4.40;3.00;;;;;;;;;;5032280;28;20191;-84
2022/02/12 11:00:29;;;;;;;6.63;2.88;;;;;;;;;;5045207;28;20187;-83
2022/02/12 11:02:56;;;;;;;5.05;3.50;;;;;;;;;;5020883;28;21493;-81
2022/02/12 11:05:22;;;;;;;8.07;3.30;;;;;;;;;;5060871;28;20221;-84
2022/02/12 11:07:52;;;;;;;4.80;2.95;;;;;;;;;;5025102;28;20422;-84
2022/02/12 11:10:18;;;;;;;9.90;3.65;;;;;;;;;;5039249;28;20269;-84
2022/02/12 11:12:44;;;;;;;5.57;2.90;;;;;;;;;;5024430;28;20182;-83
2022/02/12 11:15:11;;;;;;;4.32;2.80;;;;;;;;;;5028469;28;20274;-82
2022/02/12 11:17:38;;;;;;;4.00;3.30;;;;;;;;;;5023250;28;20197;-84
2022/02/12 11:20:05;;;;;;;5.32;2.95;;;;;;;;;;5025989;28;20186;-86
2022/02/12 11:22:31;;;;;;;7.45;3.50;;;;;;;;;;5013111;28;20175;-85
2022/02/12 11:24:57;;;;;;;3.67;2.83;;;;;;;;;;5049781;28;20225;-85
2022/02/12 11:27:24;;;;;;;3.58;2.85;;;;;;;;;;5022679;28;20179;-82
2022/02/12 11:29:54;;;;;;;6.22;3.25;;;;;;;;;;5052309;28;20206;-85
2022/02/12 11:32:22;;;;;;;3.58;2.40;;;;;;;;;;5022506;28;20244;-84
2022/02/12 11:35:09;;;;;;;6.50;2.95;;;;;;;;;;5043709;28;20589;-84
2022/02/12 11:37:39;;;;;;;3.75;2.88;;;;;;;;;;5044299;28;20646;-84
2022/02/12 11:40:10;;;;;;;2.88;2.58;;;;;;;;;;5027226;28;20244;-82
2022/02/12 11:42:46;;;;;;;5.78;3.72;;;;;;;;;;5045258;28;20218;-87
2022/02/12 11:45:16;;;;;;;3.50;2.88;;;;;;;;;;5047569;28;20224;-87
2022/02/12 11:48:02;;;;;;;11.38;2.78;;;;;;;;;;5043498;28;20547;-88
2022/02/12 11:50:40;;;;;;;3.58;2.70;;;;;;;;;;5037727;28;20270;-88
2022/02/12 11:53:26;;;;;;;3.30;2.50;;;;;;;;;;5057112;28;20176;-87
2022/02/12 11:55:52;;;;;;;6.43;2.60;;;;;;;;;;5024393;28;20265;-86
2022/02/12 11:58:22;;;;;;;4.55;2.85;;;;;;;;;;5020624;28;20194;-87
2022/02/12 12:00:48;;;;;;;5.30;2.35;;;;;;;;;;5021937;28;20660;-86
2022/02/12 12:03:14;;;;;;;1.63;1.52;;;;;;;;;;5043709;28;20190;-87
2022/02/12 12:05:40;;;;;;;4.88;2.25;;;;;;;;;;5029494;28;20237;-86
2022/02/12 12:08:07;;;;;;;2.67;2.10;;;;;;;;;;5014361;28;20179;-84
2022/02/12 12:10:35;;;;;;;2.58;2.17;;;;;;;;;;5019710;28;20186;-86
2022/02/12 12:13:26;;;;;;;2.50;2.30;;;;;;;;;;5028023;28;20194;-87
2022/02/12 12:15:56;;;;;;;2.58;2.25;;;;;;;;;;5031474;28;20179;-88
2022/02/12 12:18:25;;;;;;;2.67;2.45;;;;;;;;;;5016164;28;20280;-86
2022/02/12 12:20:51;;;;;;;3.08;2.33;;;;;;;;;;5011927;28;20178;-87
2022/02/12 12:23:17;;;;;;;5.30;2.20;;;;;;;;;;5039299;28;20281;-86
2022/02/12 12:26:04;;;;;;;2.70;2.25;;;;;;;;;;5039252;28;20309;-82
2022/02/12 12:28:30;;;;;;;3.00;2.78;;;;;;;;;;5028268;28;20198;-86
2022/02/12 12:30:57;;;;;;;2.97;1.85;;;;;;;;;;5043860;28;20636;-85
2022/02/12 12:33:26;;;;;;;3.10;2.03;;;;;;;;;;5042630;28;20216;-85
2022/02/12 12:35:53;;;;;;;3.33;1.98;;;;;;;;;;5047696;28;20187;-85
2022/02/12 12:38:19;;;;;;;6.70;2.50;;;;;;;;;;5048949;28;20506;-85
2022/02/12 12:40:45;;;;;;;7.55;2.90;;;;;;;;;;5021080;28;20183;-85
2022/02/12 12:43:11;;;;;;;4.18;2.63;;;;;;;;;;5051894;28;20174;-84
2022/02/12 12:45:41;;;;;;;5.38;2.63;;;;;;;;;;5034921;28;20278;-84
2022/02/12 12:48:07;;;;;;;2.90;1.95;;;;;;;;;;5010824;28;20210;-84
2022/02/12 12:50:34;;;;;;;3.03;2.33;;;;;;;;;;5020368;28;20929;-82
2022/02/12 12:53:06;;;;;;;5.05;2.92;;;;;;;;;;5024613;28;20226;-83
2022/02/12 12:55:32;;;;;;;4.72;3.58;;;;;;;;;;5049527;28;20182;-85
2022/02/12 12:57:59;;;;;;;3.55;2.90;;;;;;;;;;5034085;28;20209;-84
2022/02/12 13:00:25;;;;;;;4.45;2.90;;;;;;;;;;5034862;28;20186;-83
2022/02/12 13:02:55;;;;;;;4.53;3.10;;;;;;;;;;5036480;28;20196;-83
2022/02/12 13:05:24;;;;;;;4.57;2.97;;;;;;;;;;5033848;28;20217;-84
2022/02/12 13:07:51;;;;;;;2.70;2.45;;;;;;;;;;5034337;28;20549;-82
2022/02/12 13:10:18;;;;;;;3.08;2.60;;;;;;;;;;5020069;28;20179;-84
2022/02/12 13:12:44;;;;;;;2.88;2.50;;;;;;;;;;5033989;28;20190;-84
2022/02/12 13:15:13;;;;;;;4.20;3.00;;;;;;;;;;5016118;28;20189;-87
2022/02/12 13:17:43;;;;;;;3.63;2.50;;;;;;;;;;5017714;28;20178;-85
2022/02/12 13:20:12;;;;;;;2.40;2.20;;;;;;;;;;5023218;28;20183;-84
2022/02/12 13:22:38;;;;;;;4.07;2.00;;;;;;;;;;5047255;28;20186;-84
2022/02/12 13:25:15;;;;;;;7.47;3.53;;;;;;;;;;5048454;28;20206;-83
2022/02/12 13:27:43;;;;;;;2.55;2.35;;;;;;;;;;5017793;28;20269;-83
2022/02/12 13:30:10;;;;;;;5.28;2.30;;;;;;;;;;5037458;28;20262;-84
2022/02/12 13:32:46;;;;;;;2.40;2.20;;;;;;;;;;5021844;28;20189;-82
2022/02/12 13:35:13;;;;;;;3.60;2.60;;;;;;;;;;5018754;28;20186;-82
2022/02/12 13:37:41;;;;;;;4.88;2.92;;;;;;;;;;5024813;28;20187;-83
2022/02/12 13:40:09;;;;;;;2.42;1.90;;;;;;;;;;5042678;28;20187;-85
2022/02/12 13:42:35;;;;;;;2.88;2.20;;;;;;;;;;5010405;28;20248;-83
2022/02/12 13:45:02;;;;;;;7.30;2.80;;;;;;;;;;5041528;28;20627;-84
2022/02/12 13:47:28;;;;;;;5.38;3.05;;;;;;;;;;5020790;28;20178;-83
2022/02/12 13:49:55;;;;;;;5.53;2.55;;;;;;;;;;5053358;28;20182;-83
2022/02/12 13:52:22;;;;;;;2.95;2.25;;;;;;;;;;5028328;28;20190;-83
2022/02/12 13:55:00;;;;;;;2.95;2.40;;;;;;;;;;5046846;28;20191;-83
2022/02/12 13:57:26;;;;;;;3.47;2.40;;;;;;;;;;5030983;28;20197;-84
2022/02/12 13:59:52;;;;;;;3.88;2.67;;;;;;;;;;5053566;28;20445;-84
2022/02/12 14:02:18;;;;;;;3.40;2.23;;;;;;;;;;5037481;28;20186;-82
2022/02/12 14:04:44;;;;;;;3.08;2.30;;;;;;;;;;5037142;28;20475;-81
2022/02/12 14:07:10;;;;;;;5.50;2.63;;;;;;;;;;5017431;28;20193;-83
2022/02/12 14:09:36;;;;;;;5.10;2.08;;;;;;;;;;5021725;28;20442;-83
2022/02/12 14:12:03;;;;;;;2.58;1.80;;;;;;;;;;5021609;28;20176;-82
2022/02/12 14:14:29;;;;;;;5.85;2.65;;;;;;;;;;5037994;28;20182;-82
2022/02/12 14:16:55;;;;;;;4.72;2.30;;;;;;;;;;5033647;28;20663;-81
2022/02/12 14:19:21;;;;;;;3.58;2.47;;;;;;;;;;5013781;28;20619;-81
2022/02/12 14:21:47;;;;;;;4.90;2.70;;;;;;;;;;5037687;28;20184;-82
2022/02/12 14:24:13;;;;;;;3.80;2.83;;;;;;;;;;5035521;28;20202;-81
2022/02/12 14:26:39;;;;;;;3.30;2.50;;;;;;;;;;5041503;28;20434;-83
2022/02/12 14:29:06;;;;;;;2.57;2.37;;;;;;;;;;5030193;28;20842;-82
2022/02/12 14:31:32;;;;;;;3.63;3.03;;;;;;;;;;5051563;28;20483;-82
2022/02/12 14:33:58;;;;;;;3.10;2.53;;;;;;;;;;5024040;28;20434;-83
2022/02/12 14:36:24;;;;;;;2.80;2.43;;;;;;;;;;5046998;28;20476;-83
2022/02/12 14:38:51;;;;;;;2.83;2.43;;;;;;;;;;5039354;28;20535;-82
2022/02/12 14:41:18;;;;;;;2.87;2.40;;;;;;;;;;5024284;28;20551;-84
2022/02/12 14:43:44;;;;;;;3.10;2.47;;;;;;;;;;5026195;28;20520;-83
2022/02/12 14:46:11;;;;;;;2.20;2.00;;;;;;;;;;5037912;28;20948;-84